Dayton, Montana
Current Conditions -  °F | °C
As of 10:55 AM on Thursday 27 Nov 2014 (Local Time) from KGPI Reporting Station
Overcast Overcast  
Wind Chill: 38°   Ceiling: 4100
Heat Index: 43°   Visibility: 10mi
Dew Point: 36°   Wind: 8mph
Humidity: 76%   Direction: 160°SSE
Pressure: 29.88"   Gusts: NA
Location:  47.86°N, 114.28°W
Report Text: KGPI 271755Z 16007KT 10SM OVC041 06/02 A2988 RMK AO2 RAE1658 SLP137 P0000 60000 T00610022 10061 20006 51005
Loading
Personal Weather Stations






























Interactive Weather Map New forecast layout! Learn more

10-Day Weather Forecast

Advertisements
Track Severe Weather on mobile